Time;durP1;ratioP1;P1;durP2;ratioP2;P2;SDS_P1;SDS_P2;PMS_P1;PMS_P2;Temp;Humidity;BMP_temperature;BMP_pressure;BME280_temperature;BME280_humidity;BME280_pressure;Samples;Min_cycle;Max_cycle;Signal;HPM_P1;HPM_P2
2023/04/13 00:02:09;;;;;;;3.33;2.17;;;;;;;;;;4971288;28;20070;-89
2023/04/13 00:04:35;;;;;;;3.10;2.00;;;;;;;;;;4976364;28;20093;-87
2023/04/13 00:07:02;;;;;;;2.30;2.10;;;;;;;;;;4957156;28;20043;-89
2023/04/13 00:09:32;;;;;;;3.53;2.30;;;;;;;;;;4972142;28;20050;-88
2023/04/13 00:11:58;;;;;;;2.17;1.98;;;;;;;;;;4956925;28;20053;-88
2023/04/13 00:14:26;;;;;;;2.67;2.40;;;;;;;;;;4972456;28;20046;-88
2023/04/13 00:16:53;;;;;;;2.30;2.10;;;;;;;;;;4972161;28;20057;-90
2023/04/13 00:19:19;;;;;;;2.92;2.50;;;;;;;;;;4956418;28;20046;-88
2023/04/13 00:21:45;;;;;;;3.85;2.35;;;;;;;;;;4957927;28;20050;-89
2023/04/13 00:24:11;;;;;;;3.20;2.00;;;;;;;;;;4956186;28;20088;-88
2023/04/13 00:26:38;;;;;;;4.53;2.22;;;;;;;;;;4955473;28;20110;-89
2023/04/13 00:29:04;;;;;;;2.92;2.20;;;;;;;;;;4980011;28;20057;-90
2023/04/13 00:31:30;;;;;;;3.25;2.10;;;;;;;;;;4957541;28;20038;-90
2023/04/13 00:33:56;;;;;;;2.35;2.13;;;;;;;;;;4973551;28;20054;-89
2023/04/13 00:36:23;;;;;;;3.83;2.45;;;;;;;;;;4973162;28;20038;-90
2023/04/13 00:38:53;;;;;;;3.15;2.20;;;;;;;;;;4972609;28;20074;-91
2023/04/13 00:41:19;;;;;;;3.70;2.30;;;;;;;;;;4971743;28;20082;-90
2023/04/13 00:43:45;;;;;;;5.13;2.55;;;;;;;;;;4974661;28;20085;-89
2023/04/13 00:46:11;;;;;;;4.65;2.45;;;;;;;;;;4970400;28;20051;-89
2023/04/13 00:48:38;;;;;;;2.50;2.30;;;;;;;;;;4977064;28;20107;-90
2023/04/13 00:51:04;;;;;;;2.60;2.40;;;;;;;;;;4970470;28;20055;-89
2023/04/13 00:53:31;;;;;;;3.00;2.33;;;;;;;;;;4955128;28;20045;-90
2023/04/13 00:55:57;;;;;;;2.50;2.30;;;;;;;;;;4970048;28;20082;-89
2023/04/13 00:58:24;;;;;;;2.50;2.30;;;;;;;;;;4975744;28;20108;-89
2023/04/13 01:00:52;;;;;;;4.47;2.30;;;;;;;;;;4974715;28;20070;-90
2023/04/13 01:03:18;;;;;;;2.70;2.50;;;;;;;;;;4976223;28;20050;-90
2023/04/13 01:05:56;;;;;;;3.05;2.53;;;;;;;;;;4970486;28;20090;-90
2023/04/13 01:08:29;;;;;;;2.45;2.25;;;;;;;;;;4975047;28;20047;-89
2023/04/13 01:11:05;;;;;;;2.90;2.50;;;;;;;;;;4974948;28;20042;-89
2023/04/13 01:13:39;;;;;;;2.63;2.42;;;;;;;;;;4979914;28;20066;-89
2023/04/13 01:16:05;;;;;;;;;;;;;;;;;;4984210;28;20130;-91
2023/04/13 01:18:33;;;;;;;3.17;2.50;;;;;;;;;;4988355;28;19922;-90
2023/04/13 01:21:00;;;;;;;2.70;2.50;;;;;;;;;;4980383;28;20105;-89
2023/04/13 01:23:46;;;;;;;3.53;2.88;;;;;;;;;;4970830;28;20047;-89
2023/04/13 01:26:13;;;;;;;3.10;2.90;;;;;;;;;;4954234;28;20038;-89
2023/04/13 01:28:39;;;;;;;3.78;2.97;;;;;;;;;;4974598;28;20039;-89
2023/04/13 01:31:10;;;;;;;3.92;2.78;;;;;;;;;;4951151;28;20539;-90
2023/04/13 01:33:37;;;;;;;4.75;2.75;;;;;;;;;;4955231;28;20463;-90
2023/04/13 01:36:04;;;;;;;4.15;2.92;;;;;;;;;;4970107;28;20081;-88
2023/04/13 01:38:30;;;;;;;3.75;3.20;;;;;;;;;;4970437;28;20055;-90
2023/04/13 01:40:57;;;;;;;3.50;3.08;;;;;;;;;;4954321;28;20171;-89
2023/04/13 01:43:23;;;;;;;4.60;3.50;;;;;;;;;;4954941;28;20071;-88
2023/04/13 01:46:03;;;;;;;3.50;3.10;;;;;;;;;;4953847;28;20045;-89
2023/04/13 01:48:29;;;;;;;5.13;3.30;;;;;;;;;;4955709;28;20042;-89
2023/04/13 01:51:02;;;;;;;5.13;3.47;;;;;;;;;;4953087;28;20130;-90
2023/04/13 01:53:30;;;;;;;4.25;3.15;;;;;;;;;;4954136;28;20046;-90
2023/04/13 01:55:56;;;;;;;3.65;2.10;;;;;;;;;;4951553;28;20506;-88
2023/04/13 01:58:26;;;;;;;1.67;1.40;;;;;;;;;;4952881;28;20056;-90
2023/04/13 02:00:53;;;;;;;3.47;1.70;;;;;;;;;;4969842;28;20121;-89
2023/04/13 02:03:21;;;;;;;3.95;1.90;;;;;;;;;;4954536;28;20043;-89
2023/04/13 02:05:49;;;;;;;2.22;1.52;;;;;;;;;;4952249;28;20435;-89
2023/04/13 02:08:17;;;;;;;2.47;1.90;;;;;;;;;;4967983;28;20055;-89
2023/04/13 02:10:43;;;;;;;2.30;1.70;;;;;;;;;;4970551;28;20136;-90
2023/04/13 02:13:09;;;;;;;1.85;1.70;;;;;;;;;;4953476;28;20039;-90
2023/04/13 02:15:36;;;;;;;3.03;1.52;;;;;;;;;;4972531;28;20178;-89
2023/04/13 02:18:06;;;;;;;4.13;1.58;;;;;;;;;;4970011;28;20073;-90
2023/04/13 02:20:39;;;;;;;2.67;1.70;;;;;;;;;;4956628;28;20105;-90
2023/04/13 02:23:07;;;;;;;2.15;1.67;;;;;;;;;;4957710;28;20038;-89
2023/04/13 02:25:34;;;;;;;3.05;1.73;;;;;;;;;;4960824;28;20118;-90
2023/04/13 02:28:00;;;;;;;2.65;1.52;;;;;;;;;;4958751;28;20049;-89
2023/04/13 02:30:26;;;;;;;4.57;1.55;;;;;;;;;;4956358;28;20228;-89
2023/04/13 02:32:53;;;;;;;2.72;1.50;;;;;;;;;;4972959;28;20054;-89
2023/04/13 02:35:19;;;;;;;2.20;1.52;;;;;;;;;;4973730;28;20047;-88
2023/04/13 02:37:46;;;;;;;3.08;1.60;;;;;;;;;;4954964;28;20039;-89
2023/04/13 02:40:12;;;;;;;2.35;1.40;;;;;;;;;;4976258;28;20053;-89
2023/04/13 02:42:38;;;;;;;1.85;1.35;;;;;;;;;;4975996;28;20065;-86
2023/04/13 02:45:06;;;;;;;2.78;1.50;;;;;;;;;;4959858;28;20054;-86
2023/04/13 02:47:32;;;;;;;2.00;1.80;;;;;;;;;;4953568;28;20492;-86
2023/04/13 02:49:59;;;;;;;4.60;1.90;;;;;;;;;;4974700;28;20402;-86
2023/04/13 02:52:25;;;;;;;2.67;1.90;;;;;;;;;;4958086;28;20121;-88
2023/04/13 02:54:53;;;;;;;2.65;2.45;;;;;;;;;;4958995;28;20045;-88
2023/04/13 02:57:19;;;;;;;2.55;2.33;;;;;;;;;;4957227;28;20097;-88
2023/04/13 02:59:46;;;;;;;4.97;2.85;;;;;;;;;;4976170;28;20053;-88
2023/04/13 03:02:13;;;;;;;5.05;2.60;;;;;;;;;;4991611;28;20027;-89
2023/04/13 03:04:39;;;;;;;8.73;2.67;;;;;;;;;;4972125;28;20042;-88
2023/04/13 03:07:13;;;;;;;5.97;2.17;;;;;;;;;;4996920;28;20479;-89
2023/04/13 03:09:43;;;;;;;4.00;2.10;;;;;;;;;;4959020;28;20110;-88
2023/04/13 03:12:09;;;;;;;4.68;2.38;;;;;;;;;;4959325;28;20064;-89
2023/04/13 03:14:36;;;;;;;5.55;2.13;;;;;;;;;;4958462;28;20084;-88
2023/04/13 03:17:03;;;;;;;2.25;2.05;;;;;;;;;;4975031;28;20038;-89
2023/04/13 03:19:29;;;;;;;5.03;2.20;;;;;;;;;;4976144;28;20081;-89
2023/04/13 03:21:55;;;;;;;5.43;2.03;;;;;;;;;;4950310;28;20046;-89
2023/04/13 03:24:26;;;;;;;3.05;2.00;;;;;;;;;;4971469;28;20047;-88
2023/04/13 03:26:54;;;;;;;5.30;2.33;;;;;;;;;;4971985;28;20078;-88
2023/04/13 03:29:20;;;;;;;6.25;2.25;;;;;;;;;;4957472;28;20537;-88
2023/04/13 03:31:46;;;;;;;6.32;2.35;;;;;;;;;;4973963;28;20039;-89
2023/04/13 03:34:12;;;;;;;8.05;2.47;;;;;;;;;;4955208;28;20403;-88
2023/04/13 03:36:38;;;;;;;3.40;2.20;;;;;;;;;;4972246;28;20039;-88
2023/04/13 03:39:04;;;;;;;6.60;2.75;;;;;;;;;;4974867;28;20050;-88
2023/04/13 03:41:30;;;;;;;8.35;2.72;;;;;;;;;;4957911;28;20454;-89
2023/04/13 03:43:57;;;;;;;9.85;3.13;;;;;;;;;;4970988;28;20055;-88
2023/04/13 03:46:23;;;;;;;10.70;3.35;;;;;;;;;;4976787;28;20051;-88
2023/04/13 03:48:49;;;;;;;8.45;3.22;;;;;;;;;;4975512;28;20068;-88
2023/04/13 03:51:15;;;;;;;8.93;2.65;;;;;;;;;;4953928;28;20088;-88
2023/04/13 03:53:41;;;;;;;10.65;3.15;;;;;;;;;;4956379;28;20067;-89
2023/04/13 03:56:07;;;;;;;9.15;3.05;;;;;;;;;;4957458;28;20464;-89
2023/04/13 03:58:33;;;;;;;11.65;2.83;;;;;;;;;;4973446;28;20054;-89
2023/04/13 04:00:59;;;;;;;10.02;2.85;;;;;;;;;;4974399;28;20125;-89
2023/04/13 04:03:26;;;;;;;7.95;3.30;;;;;;;;;;4958578;28;20047;-89
2023/04/13 04:05:52;;;;;;;7.35;2.80;;;;;;;;;;4976523;28;20495;-89
2023/04/13 04:08:18;;;;;;;5.35;2.45;;;;;;;;;;4958724;28;20062;-88
2023/04/13 04:10:44;;;;;;;7.95;3.10;;;;;;;;;;4958683;28;20069;-89
2023/04/13 04:13:10;;;;;;;8.73;2.95;;;;;;;;;;4953529;28;20047;-89
2023/04/13 04:15:36;;;;;;;7.30;2.97;;;;;;;;;;4954183;28;20407;-88
2023/04/13 04:18:03;;;;;;;11.25;2.92;;;;;;;;;;4953303;28;20047;-88
2023/04/13 04:20:29;;;;;;;7.50;2.50;;;;;;;;;;4972097;28;20537;-89
2023/04/13 04:22:59;;;;;;;6.75;2.58;;;;;;;;;;4973231;28;20499;-89
2023/04/13 04:25:26;;;;;;;7.80;2.67;;;;;;;;;;4971800;28;20051;-90
2023/04/13 04:27:56;;;;;;;8.65;2.70;;;;;;;;;;4954386;28;20054;-89
2023/04/13 04:30:23;;;;;;;11.05;4.18;;;;;;;;;;4970656;28;20383;-89
2023/04/13 04:32:51;;;;;;;9.95;2.63;;;;;;;;;;4952927;28;20098;-88
2023/04/13 04:35:19;;;;;;;7.45;3.00;;;;;;;;;;4950031;28;20053;-87
2023/04/13 04:37:48;;;;;;;8.35;3.17;;;;;;;;;;4970018;28;20039;-88
2023/04/13 04:40:14;;;;;;;7.47;3.00;;;;;;;;;;4951691;28;20059;-89
2023/04/13 04:42:41;;;;;;;11.00;2.72;;;;;;;;;;4970342;28;20097;-87
2023/04/13 04:45:07;;;;;;;10.65;3.17;;;;;;;;;;4971251;28;20047;-88
2023/04/13 04:47:40;;;;;;;9.40;3.55;;;;;;;;;;4958562;28;20042;-87
2023/04/13 04:50:07;;;;;;;7.70;3.00;;;;;;;;;;4986286;28;20038;-90
2023/04/13 04:52:33;;;;;;;8.85;3.10;;;;;;;;;;4969386;28;20192;-91
2023/04/13 04:54:59;;;;;;;7.85;2.70;;;;;;;;;;4965690;28;20042;-91
2023/04/13 04:57:26;;;;;;;6.65;2.60;;;;;;;;;;4956746;28;20049;-90
2023/04/13 04:59:52;;;;;;;9.88;2.95;;;;;;;;;;4972586;28;20043;-90
2023/04/13 05:02:18;;;;;;;7.60;3.05;;;;;;;;;;4956736;28;20054;-92
2023/04/13 05:04:44;;;;;;;6.28;2.97;;;;;;;;;;4971823;28;20090;-91
2023/04/13 05:07:15;;;;;;;4.50;2.80;;;;;;;;;;4958071;28;20106;-90
2023/04/13 05:09:42;;;;;;;6.40;2.90;;;;;;;;;;4959845;28;20051;-90
2023/04/13 05:12:08;;;;;;;6.90;2.97;;;;;;;;;;4972918;28;20104;-90
2023/04/13 05:14:35;;;;;;;13.10;5.18;;;;;;;;;;4978387;28;20077;-91
2023/04/13 05:17:02;;;;;;;8.35;3.55;;;;;;;;;;4956995;28;20050;-91
2023/04/13 05:19:28;;;;;;;10.10;3.67;;;;;;;;;;4957680;28;20093;-90
2023/04/13 05:21:54;;;;;;;10.15;3.80;;;;;;;;;;4971988;28;20047;-90
2023/04/13 05:24:20;;;;;;;6.82;4.05;;;;;;;;;;4938097;28;20061;-91
2023/04/13 05:26:46;;;;;;;12.70;4.20;;;;;;;;;;4956287;28;20043;-90
2023/04/13 05:29:12;;;;;;;4.72;3.28;;;;;;;;;;4953116;28;20051;-91
2023/04/13 05:31:38;;;;;;;15.32;4.30;;;;;;;;;;4971836;28;20043;-91
2023/04/13 05:34:04;;;;;;;8.70;3.50;;;;;;;;;;4955200;28;20047;-89
2023/04/13 05:36:31;;;;;;;11.98;4.50;;;;;;;;;;4970526;28;20098;-90
2023/04/13 05:38:58;;;;;;;8.43;4.43;;;;;;;;;;4973637;28;20046;-91
2023/04/13 05:41:24;;;;;;;12.85;4.63;;;;;;;;;;4956511;28;20133;-90
2023/04/13 05:43:50;;;;;;;7.88;3.80;;;;;;;;;;4953283;28;20264;-91
2023/04/13 05:46:16;;;;;;;8.05;3.58;;;;;;;;;;4975118;28;20047;-89
2023/04/13 05:48:43;;;;;;;8.10;3.80;;;;;;;;;;4952709;28;20415;-90
2023/04/13 05:51:09;;;;;;;8.95;3.72;;;;;;;;;;4971617;28;20121;-90
2023/04/13 05:53:35;;;;;;;9.45;4.20;;;;;;;;;;4972321;28;20101;-90
2023/04/13 05:56:01;;;;;;;10.35;4.60;;;;;;;;;;4950683;28;20043;-91
2023/04/13 05:58:27;;;;;;;6.50;3.28;;;;;;;;;;4958513;28;20046;-89
2023/04/13 06:00:53;;;;;;;13.95;4.50;;;;;;;;;;4958733;28;20093;-87
2023/04/13 06:03:19;;;;;;;10.70;3.40;;;;;;;;;;4953772;28;20043;-88
2023/04/13 06:05:47;;;;;;;10.00;3.35;;;;;;;;;;4969285;28;20047;-87
2023/04/13 06:08:13;;;;;;;9.63;3.83;;;;;;;;;;4975152;28;20050;-88
2023/04/13 06:10:40;;;;;;;5.80;2.90;;;;;;;;;;4973602;28;20066;-88
2023/04/13 06:13:07;;;;;;;4.13;3.05;;;;;;;;;;4977438;28;20130;-86
2023/04/13 06:15:33;;;;;;;6.13;3.13;;;;;;;;;;4968781;28;20047;-89
2023/04/13 06:18:00;;;;;;;7.55;2.85;;;;;;;;;;4954470;29;20073;-88
2023/04/13 06:20:26;;;;;;;8.70;3.75;;;;;;;;;;4975246;28;20082;-88
2023/04/13 06:22:52;;;;;;;7.00;3.05;;;;;;;;;;4957580;28;20454;-89
2023/04/13 06:25:18;;;;;;;11.10;4.03;;;;;;;;;;4976172;28;20488;-88
2023/04/13 06:27:45;;;;;;;5.72;3.00;;;;;;;;;;4968416;28;20054;-88
2023/04/13 06:30:12;;;;;;;4.90;2.72;;;;;;;;;;4957553;28;20046;-90
2023/04/13 06:32:38;;;;;;;9.45;2.83;;;;;;;;;;4957632;28;20054;-89
2023/04/13 06:35:05;;;;;;;3.78;2.55;;;;;;;;;;4957201;28;20135;-88
2023/04/13 06:37:31;;;;;;;7.75;2.53;;;;;;;;;;4978080;28;20086;-85
2023/04/13 06:39:57;;;;;;;5.65;2.67;;;;;;;;;;4975801;28;20101;-89
2023/04/13 06:42:23;;;;;;;5.45;2.67;;;;;;;;;;4958625;28;20182;-88
2023/04/13 06:44:49;;;;;;;3.80;2.35;;;;;;;;;;4960863;28;20054;-89
2023/04/13 06:47:16;;;;;;;8.63;2.80;;;;;;;;;;4960339;28;20046;-88
2023/04/13 06:49:42;;;;;;;7.93;2.85;;;;;;;;;;4958381;28;20078;-88
2023/04/13 06:52:08;;;;;;;5.45;2.40;;;;;;;;;;4974580;28;20039;-89
2023/04/13 06:54:34;;;;;;;7.22;2.80;;;;;;;;;;4955759;28;20054;-89
2023/04/13 06:57:01;;;;;;;10.75;2.83;;;;;;;;;;4959442;28;20057;-89
2023/04/13 06:59:27;;;;;;;4.88;2.78;;;;;;;;;;4977447;28;20090;-88
2023/04/13 07:01:53;;;;;;;6.13;2.53;;;;;;;;;;4974590;28;20054;-89
2023/04/13 07:04:20;;;;;;;8.77;2.90;;;;;;;;;;4954571;28;20061;-90
2023/04/13 07:06:46;;;;;;;3.88;2.22;;;;;;;;;;4977056;28;20390;-90
2023/04/13 07:09:12;;;;;;;4.55;2.42;;;;;;;;;;4945626;29;20432;-89
2023/04/13 07:11:38;;;;;;;5.63;2.17;;;;;;;;;;4950877;28;20050;-91
2023/04/13 07:14:04;;;;;;;7.15;2.80;;;;;;;;;;4976623;28;20070;-90
2023/04/13 07:16:30;;;;;;;6.15;2.38;;;;;;;;;;4959057;28;20054;-89
2023/04/13 07:18:59;;;;;;;8.30;2.60;;;;;;;;;;4976227;28;20046;-90
2023/04/13 07:21:26;;;;;;;7.85;2.58;;;;;;;;;;4957787;28;20058;-89
2023/04/13 07:23:52;;;;;;;4.75;2.30;;;;;;;;;;4958527;28;20054;-90
2023/04/13 07:26:18;;;;;;;6.35;2.10;;;;;;;;;;4976027;28;20043;-89
2023/04/13 07:28:44;;;;;;;4.13;2.40;;;;;;;;;;4957955;28;20158;-90
2023/04/13 07:31:10;;;;;;;7.43;2.50;;;;;;;;;;4975533;28;20236;-90
2023/04/13 07:33:36;;;;;;;4.97;2.30;;;;;;;;;;4975986;28;20046;-90
2023/04/13 07:36:03;;;;;;;7.63;2.22;;;;;;;;;;4976305;28;20055;-88
2023/04/13 07:38:29;;;;;;;9.88;3.55;;;;;;;;;;4980463;28;20506;-91
2023/04/13 07:40:55;;;;;;;7.07;2.22;;;;;;;;;;4983866;28;20047;-90
2023/04/13 07:43:24;;;;;;;6.82;2.60;;;;;;;;;;4982793;28;20068;-90
2023/04/13 07:45:50;;;;;;;2.83;1.67;;;;;;;;;;4979806;28;20107;-90
2023/04/13 07:48:16;;;;;;;2.53;1.80;;;;;;;;;;4956560;28;20173;-87
2023/04/13 07:50:42;;;;;;;7.65;2.40;;;;;;;;;;4967258;28;20054;-90
2023/04/13 07:53:09;;;;;;;5.95;2.30;;;;;;;;;;4983363;28;20046;-90
2023/04/13 07:55:38;;;;;;;5.72;2.28;;;;;;;;;;4954512;29;20094;-89
2023/04/13 07:58:04;;;;;;;6.90;2.33;;;;;;;;;;4971361;28;20055;-90
2023/04/13 08:00:30;;;;;;;4.45;1.85;;;;;;;;;;4979545;28;20113;-89
2023/04/13 08:02:56;;;;;;;6.63;2.03;;;;;;;;;;4961688;28;20053;-90
2023/04/13 08:05:22;;;;;;;6.18;2.20;;;;;;;;;;4980875;28;20050;-88
2023/04/13 08:07:48;;;;;;;5.15;2.05;;;;;;;;;;4974957;28;20499;-88
2023/04/13 08:10:15;;;;;;;6.50;2.10;;;;;;;;;;4958399;28;20060;-89
2023/04/13 08:12:41;;;;;;;8.05;2.33;;;;;;;;;;4974984;28;20043;-90
2023/04/13 08:15:08;;;;;;;6.80;2.20;;;;;;;;;;4959175;28;20491;-90
2023/04/13 08:17:34;;;;;;;1.52;1.42;;;;;;;;;;4956325;28;20058;-87
2023/04/13 08:20:01;;;;;;;4.43;1.58;;;;;;;;;;4958418;28;20061;-89
2023/04/13 08:22:27;;;;;;;3.60;1.40;;;;;;;;;;4957744;28;20081;-89
2023/04/13 08:24:53;;;;;;;4.20;1.65;;;;;;;;;;4972065;28;20054;-89
2023/04/13 08:27:19;;;;;;;6.80;1.73;;;;;;;;;;4974646;28;20053;-89
2023/04/13 08:29:45;;;;;;;3.88;1.50;;;;;;;;;;4958184;28;20042;-88
2023/04/13 08:32:11;;;;;;;2.10;1.50;;;;;;;;;;4965914;28;20073;-90
2023/04/13 08:34:37;;;;;;;3.05;1.90;;;;;;;;;;4976191;28;20053;-89
2023/04/13 08:37:03;;;;;;;6.07;2.10;;;;;;;;;;4956519;28;20253;-89
2023/04/13 08:39:30;;;;;;;4.47;2.05;;;;;;;;;;4964425;28;20486;-89
2023/04/13 08:41:56;;;;;;;3.00;1.67;;;;;;;;;;4957478;28;20057;-89
2023/04/13 08:44:23;;;;;;;7.28;2.40;;;;;;;;;;4956467;28;20058;-91
2023/04/13 08:46:49;;;;;;;7.18;2.47;;;;;;;;;;4955040;28;20434;-89
2023/04/13 08:49:15;;;;;;;6.78;2.10;;;;;;;;;;4957388;28;20380;-89
2023/04/13 08:51:44;;;;;;;6.78;2.25;;;;;;;;;;4976796;28;20043;-89
2023/04/13 08:54:12;;;;;;;7.05;2.28;;;;;;;;;;4975578;28;20079;-90
2023/04/13 08:56:40;;;;;;;4.13;2.03;;;;;;;;;;4954270;28;20055;-89
2023/04/13 08:59:08;;;;;;;4.68;2.13;;;;;;;;;;4974980;28;20047;-89
2023/04/13 09:01:36;;;;;;;7.43;2.30;;;;;;;;;;4973663;28;20054;-90
2023/04/13 09:04:06;;;;;;;5.82;2.00;;;;;;;;;;4957650;28;20054;-90
2023/04/13 09:06:34;;;;;;;5.80;2.08;;;;;;;;;;4959925;28;20084;-90
2023/04/13 09:09:04;;;;;;;7.82;2.03;;;;;;;;;;4973475;28;20066;-90
2023/04/13 09:11:31;;;;;;;5.68;1.90;;;;;;;;;;4957983;28;20082;-90
2023/04/13 09:13:57;;;;;;;3.55;1.67;;;;;;;;;;4974799;28;20706;-88
2023/04/13 09:16:23;;;;;;;8.63;2.10;;;;;;;;;;4975192;28;20178;-90
2023/04/13 09:18:50;;;;;;;3.42;2.00;;;;;;;;;;4975474;28;20082;-89
2023/04/13 09:21:16;;;;;;;10.20;2.00;;;;;;;;;;4972196;28;20106;-89
2023/04/13 09:23:52;;;;;;;6.80;2.00;;;;;;;;;;4973802;28;20874;-90
2023/04/13 09:26:19;;;;;;;6.32;2.30;;;;;;;;;;4971522;28;20399;-90
2023/04/13 09:28:49;;;;;;;5.68;2.50;;;;;;;;;;4955544;28;20061;-90
2023/04/13 09:31:15;;;;;;;4.13;2.00;;;;;;;;;;4974358;28;20050;-90
2023/04/13 09:33:45;;;;;;;5.22;2.70;;;;;;;;;;4973001;28;20053;-89
2023/04/13 09:36:12;;;;;;;9.02;2.78;;;;;;;;;;4956529;28;20050;-88
2023/04/13 09:38:38;;;;;;;10.02;3.13;;;;;;;;;;4974178;28;20046;-87
2023/04/13 09:41:06;;;;;;;5.85;2.63;;;;;;;;;;4955508;28;20069;-88
2023/04/13 09:43:36;;;;;;;6.60;2.25;;;;;;;;;;4978056;28;20049;-88
2023/04/13 09:46:02;;;;;;;6.78;2.30;;;;;;;;;;4974684;28;20046;-87
2023/04/13 09:48:29;;;;;;;4.97;2.03;;;;;;;;;;4979353;28;20047;-86
2023/04/13 09:50:59;;;;;;;8.70;2.20;;;;;;;;;;4958690;28;20053;-88
2023/04/13 09:53:26;;;;;;;8.00;2.50;;;;;;;;;;4960302;28;20046;-89
2023/04/13 09:55:59;;;;;;;11.10;2.60;;;;;;;;;;4959619;28;20051;-89
2023/04/13 09:58:25;;;;;;;9.65;2.97;;;;;;;;;;4960365;28;20049;-89
2023/04/13 10:00:52;;;;;;;7.10;2.17;;;;;;;;;;4959889;28;20054;-87
2023/04/13 10:03:21;;;;;;;5.00;2.15;;;;;;;;;;4958147;28;20042;-87
2023/04/13 10:05:47;;;;;;;7.28;2.50;;;;;;;;;;4976882;28;20046;-88
2023/04/13 10:08:13;;;;;;;9.02;2.60;;;;;;;;;;4975911;28;20070;-88
2023/04/13 10:10:39;;;;;;;8.23;2.47;;;;;;;;;;4977114;28;20074;-89
2023/04/13 10:13:14;;;;;;;7.30;2.10;;;;;;;;;;4974532;28;20053;-88
2023/04/13 10:15:47;;;;;;;9.77;2.45;;;;;;;;;;4964575;28;20054;-90
2023/04/13 10:18:25;;;;;;;9.55;2.60;;;;;;;;;;4969130;28;20047;-88
2023/04/13 10:20:52;;;;;;;12.73;3.30;;;;;;;;;;4977293;28;20081;-88
2023/04/13 10:23:19;;;;;;;9.65;2.40;;;;;;;;;;4976007;28;20090;-87
2023/04/13 10:25:49;;;;;;;8.32;2.25;;;;;;;;;;4958181;28;20046;-87
2023/04/13 10:28:16;;;;;;;6.88;2.10;;;;;;;;;;4975838;28;20089;-87
2023/04/13 10:30:51;;;;;;;4.43;1.80;;;;;;;;;;4959007;28;20043;-87
2023/04/13 10:33:17;;;;;;;3.78;1.40;;;;;;;;;;4975389;28;20051;-87
2023/04/13 10:35:55;;;;;;;3.05;1.25;;;;;;;;;;4955099;28;20062;-86
2023/04/13 10:38:21;;;;;;;3.97;1.40;;;;;;;;;;4966584;28;20054;-88
2023/04/13 10:40:47;;;;;;;5.03;1.50;;;;;;;;;;4978851;28;20541;-87
2023/04/13 10:43:26;;;;;;;4.15;1.50;;;;;;;;;;4959147;28;20063;-86
2023/04/13 10:46:04;;;;;;;4.95;1.38;;;;;;;;;;4973346;28;20051;-87
2023/04/13 10:48:30;;;;;;;4.70;1.70;;;;;;;;;;4975979;28;20054;-88
2023/04/13 10:50:57;;;;;;;3.00;1.50;;;;;;;;;;4974234;28;20054;-86
2023/04/13 10:53:24;;;;;;;5.85;2.20;;;;;;;;;;4958996;28;20584;-87
2023/04/13 10:55:50;;;;;;;6.00;2.17;;;;;;;;;;4975046;28;20038;-87
2023/04/13 10:58:17;;;;;;;4.60;2.33;;;;;;;;;;4975356;28;20499;-87
2023/04/13 11:00:44;;;;;;;7.75;2.40;;;;;;;;;;4956091;28;20123;-87
2023/04/13 11:03:10;;;;;;;9.77;3.17;;;;;;;;;;4944758;28;20046;-87
2023/04/13 11:05:36;;;;;;;16.00;4.05;;;;;;;;;;4958923;28;20514;-86
2023/04/13 11:08:03;;;;;;;16.35;4.20;;;;;;;;;;4958083;28;20047;-87
2023/04/13 11:10:30;;;;;;;11.10;3.42;;;;;;;;;;4958115;28;20137;-86
2023/04/13 11:12:57;;;;;;;13.45;3.92;;;;;;;;;;4975955;28;20042;-87
2023/04/13 11:15:24;;;;;;;15.77;4.13;;;;;;;;;;4958626;28;20055;-87
2023/04/13 11:17:51;;;;;;;12.65;3.88;;;;;;;;;;4975374;28;20510;-88
2023/04/13 11:20:17;;;;;;;21.88;4.22;;;;;;;;;;4963469;28;20138;-86
2023/04/13 11:22:44;;;;;;;10.73;3.67;;;;;;;;;;4982326;28;20113;-88
2023/04/13 11:25:10;;;;;;;9.25;3.67;;;;;;;;;;4953437;28;20051;-87
2023/04/13 11:27:37;;;;;;;14.68;3.60;;;;;;;;;;4957445;28;20410;-85
2023/04/13 11:30:07;;;;;;;11.27;3.55;;;;;;;;;;4974230;28;20043;-87
2023/04/13 11:32:34;;;;;;;8.43;3.33;;;;;;;;;;4973889;28;20047;-87
2023/04/13 11:35:07;;;;;;;12.60;3.25;;;;;;;;;;4956760;28;20047;-86
2023/04/13 11:37:40;;;;;;;17.83;4.35;;;;;;;;;;4977361;28;20049;-88
2023/04/13 11:40:19;;;;;;;8.65;3.13;;;;;;;;;;4979098;28;20530;-87
2023/04/13 11:42:45;;;;;;;17.85;4.03;;;;;;;;;;4970088;28;20408;-86
2023/04/13 11:45:13;;;;;;;14.77;3.97;;;;;;;;;;4944631;28;20106;-86
2023/04/13 11:47:40;;;;;;;17.75;3.90;;;;;;;;;;4971472;28;20045;-86
2023/04/13 11:50:06;;;;;;;15.13;4.10;;;;;;;;;;4970852;28;20035;-85
2023/04/13 11:52:34;;;;;;;10.82;2.97;;;;;;;;;;4958492;28;20097;-88
2023/04/13 11:55:03;;;;;;;12.15;3.65;;;;;;;;;;4957401;28;20134;-86
2023/04/13 11:57:29;;;;;;;10.88;3.50;;;;;;;;;;4958761;28;20059;-85
2023/04/13 11:59:55;;;;;;;13.55;4.20;;;;;;;;;;4962046;28;20047;-85
2023/04/13 12:02:28;;;;;;;14.30;3.58;;;;;;;;;;4960265;28;20086;-87
2023/04/13 12:04:54;;;;;;;11.90;4.05;;;;;;;;;;4972245;28;20145;-87
2023/04/13 12:07:21;;;;;;;8.07;3.40;;;;;;;;;;4974673;28;20039;-87
2023/04/13 12:09:47;;;;;;;13.57;4.22;;;;;;;;;;4969841;28;20145;-86
2023/04/13 12:12:23;;;;;;;12.65;3.60;;;;;;;;;;4960099;28;20103;-86
2023/04/13 12:14:53;;;;;;;9.38;3.80;;;;;;;;;;4975958;28;20054;-87
2023/04/13 12:17:19;;;;;;;12.38;3.72;;;;;;;;;;4958207;28;20109;-87
2023/04/13 12:19:45;;;;;;;10.55;3.55;;;;;;;;;;4955908;28;20190;-86
2023/04/13 12:22:11;;;;;;;10.07;2.92;;;;;;;;;;4957949;28;20074;-87
2023/04/13 12:24:38;;;;;;;9.52;3.70;;;;;;;;;;4974665;28;20055;-88
2023/04/13 12:27:05;;;;;;;14.13;3.83;;;;;;;;;;4975235;28;20403;-86
2023/04/13 12:29:31;;;;;;;11.90;3.13;;;;;;;;;;4973348;28;20054;-87
2023/04/13 12:32:02;;;;;;;15.13;4.00;;;;;;;;;;4973741;28;20075;-87
2023/04/13 12:34:28;;;;;;;17.83;3.90;;;;;;;;;;4956129;28;20062;-87
2023/04/13 12:36:56;;;;;;;11.65;3.30;;;;;;;;;;4974945;28;20046;-87
2023/04/13 12:39:22;;;;;;;12.38;3.70;;;;;;;;;;4950352;28;20533;-87
2023/04/13 12:41:48;;;;;;;14.85;4.25;;;;;;;;;;4968548;28;20073;-87
2023/04/13 12:44:14;;;;;;;11.90;3.45;;;;;;;;;;4953589;28;20058;-86
2023/04/13 12:46:41;;;;;;;10.23;3.80;;;;;;;;;;4956037;28;20108;-86
2023/04/13 12:49:07;;;;;;;9.27;3.55;;;;;;;;;;4954919;28;20070;-87
2023/04/13 12:51:33;;;;;;;14.18;3.72;;;;;;;;;;4958426;28;20047;-87
2023/04/13 12:53:59;;;;;;;17.45;3.70;;;;;;;;;;4951976;28;20069;-87
2023/04/13 12:56:25;;;;;;;12.73;2.95;;;;;;;;;;4974835;28;20093;-88
2023/04/13 12:58:51;;;;;;;12.93;3.33;;;;;;;;;;4939057;29;20051;-85
2023/04/13 13:01:18;;;;;;;17.20;3.60;;;;;;;;;;4973891;28;20054;-86
2023/04/13 13:03:44;;;;;;;13.25;4.13;;;;;;;;;;4956476;28;20043;-90
2023/04/13 13:06:10;;;;;;;10.48;3.42;;;;;;;;;;4977679;28;20043;-89
2023/04/13 13:08:36;;;;;;;8.95;3.53;;;;;;;;;;4964991;28;20046;-87
2023/04/13 13:11:02;;;;;;;11.02;3.50;;;;;;;;;;4957285;28;20039;-87
2023/04/13 13:13:28;;;;;;;12.60;3.50;;;;;;;;;;4957623;28;20082;-88
2023/04/13 13:15:55;;;;;;;8.45;3.38;;;;;;;;;;4973578;28;20047;-87
2023/04/13 13:18:21;;;;;;;15.65;4.32;;;;;;;;;;4954538;28;20112;-86
2023/04/13 13:20:48;;;;;;;14.02;3.05;;;;;;;;;;4955391;28;20129;-86
2023/04/13 13:23:14;;;;;;;12.70;3.90;;;;;;;;;;4967388;28;20051;-85
2023/04/13 13:25:42;;;;;;;10.82;3.30;;;;;;;;;;4947158;28;20044;-87
2023/04/13 13:28:09;;;;;;;9.23;3.60;;;;;;;;;;4937339;29;20047;-87
2023/04/13 13:30:35;;;;;;;11.98;3.67;;;;;;;;;;4967912;28;20086;-86
2023/04/13 13:33:02;;;;;;;14.75;4.38;;;;;;;;;;4954651;28;20061;-88
2023/04/13 13:35:28;;;;;;;7.45;3.53;;;;;;;;;;4962566;28;20137;-86
2023/04/13 13:37:54;;;;;;;14.18;3.38;;;;;;;;;;4944998;29;20129;-86
2023/04/13 13:40:21;;;;;;;10.52;3.80;;;;;;;;;;4962627;28;20418;-87
2023/04/13 13:42:47;;;;;;;11.40;3.63;;;;;;;;;;4956485;28;20059;-87
2023/04/13 13:45:13;;;;;;;14.82;3.78;;;;;;;;;;4973096;28;20051;-85
2023/04/13 13:47:39;;;;;;;11.05;3.42;;;;;;;;;;4957833;28;20098;-88
2023/04/13 13:50:05;;;;;;;11.77;3.40;;;;;;;;;;4952455;29;20047;-86
2023/04/13 13:52:32;;;;;;;8.68;3.65;;;;;;;;;;4954834;29;20514;-88
2023/04/13 13:54:58;;;;;;;14.50;3.92;;;;;;;;;;4964564;28;20561;-87
2023/04/13 13:57:25;;;;;;;11.95;3.30;;;;;;;;;;4940025;29;20055;-86
2023/04/13 13:59:51;;;;;;;8.75;3.67;;;;;;;;;;4952024;28;20124;-88
2023/04/13 14:02:17;;;;;;;10.13;3.25;;;;;;;;;;4954843;28;20803;-85
2023/04/13 14:04:43;;;;;;;10.38;3.53;;;;;;;;;;4954275;28;20062;-85
2023/04/13 14:07:09;;;;;;;9.60;3.60;;;;;;;;;;4954928;28;20039;-85
2023/04/13 14:09:35;;;;;;;12.98;3.58;;;;;;;;;;4955064;28;20046;-86
2023/04/13 14:12:01;;;;;;;10.65;3.47;;;;;;;;;;4944721;28;20099;-84
2023/04/13 14:14:27;;;;;;;10.15;3.45;;;;;;;;;;4954356;28;20042;-85
2023/04/13 14:16:53;;;;;;;8.70;3.22;;;;;;;;;;4948986;28;20498;-86
2023/04/13 14:19:20;;;;;;;9.45;3.63;;;;;;;;;;4970524;28;20047;-86
2023/04/13 14:21:48;;;;;;;10.05;3.55;;;;;;;;;;4973042;28;20057;-84
2023/04/13 14:24:14;;;;;;;12.40;4.22;;;;;;;;;;4951071;29;20059;-85
2023/04/13 14:26:40;;;;;;;10.85;3.38;;;;;;;;;;4960229;28;20396;-85
2023/04/13 14:29:07;;;;;;;10.60;4.13;;;;;;;;;;4957142;28;20046;-85
2023/04/13 14:31:34;;;;;;;13.32;3.67;;;;;;;;;;4959748;28;20563;-85
2023/04/13 14:34:00;;;;;;;12.50;3.83;;;;;;;;;;4958614;28;20042;-85
2023/04/13 14:36:26;;;;;;;7.45;3.85;;;;;;;;;;4958501;28;20046;-85
2023/04/13 14:38:52;;;;;;;14.80;3.90;;;;;;;;;;4955512;28;20097;-86
2023/04/13 14:41:18;;;;;;;12.27;3.50;;;;;;;;;;4957215;28;20054;-85